sensor_id;sensor_type;location;lat;lon;timestamp;temperature;humidity
79760;DHT22;70512;42.122;24.732;2023-07-09T00:02:14;23.10;55.10
79760;DHT22;70512;42.122;24.732;2023-07-09T00:04:42;23.00;55.00
79760;DHT22;70512;42.122;24.732;2023-07-09T00:07:30;23.00;55.10
79760;DHT22;70512;42.122;24.732;2023-07-09T00:09:58;22.90;55.20
79760;DHT22;70512;42.122;24.732;2023-07-09T00:12:26;22.80;55.00
79760;DHT22;70512;42.122;24.732;2023-07-09T00:14:55;22.80;54.90
79760;DHT22;70512;42.122;24.732;2023-07-09T00:17:29;22.70;55.10
79760;DHT22;70512;42.122;24.732;2023-07-09T00:19:57;22.70;55.10
79760;DHT22;70512;42.122;24.732;2023-07-09T00:22:25;22.70;55.10
79760;DHT22;70512;42.122;24.732;2023-07-09T00:24:56;22.70;55.00
79760;DHT22;70512;42.122;24.732;2023-07-09T00:27:27;22.60;55.00
79760;DHT22;70512;42.122;24.732;2023-07-09T00:29:54;22.70;54.60
79760;DHT22;70512;42.122;24.732;2023-07-09T00:32:22;22.60;54.60
79760;DHT22;70512;42.122;24.732;2023-07-09T00:34:52;22.60;54.30
79760;DHT22;70512;42.122;24.732;2023-07-09T00:37:23;22.60;54.30
79760;DHT22;70512;42.122;24.732;2023-07-09T00:39:54;22.60;54.30
79760;DHT22;70512;42.122;24.732;2023-07-09T00:42:22;22.60;54.20
79760;DHT22;70512;42.122;24.732;2023-07-09T00:44:54;22.60;54.10
79760;DHT22;70512;42.122;24.732;2023-07-09T00:47:44;22.60;54.00
79760;DHT22;70512;42.122;24.732;2023-07-09T00:50:22;22.60;53.80
79760;DHT22;70512;42.122;24.732;2023-07-09T00:52:52;22.60;53.60
79760;DHT22;70512;42.122;24.732;2023-07-09T00:55:28;22.60;53.50
79760;DHT22;70512;42.122;24.732;2023-07-09T00:57:57;22.60;53.50
79760;DHT22;70512;42.122;24.732;2023-07-09T01:00:34;22.60;53.30
79760;DHT22;70512;42.122;24.732;2023-07-09T01:02:59;22.60;53.20
79760;DHT22;70512;42.122;24.732;2023-07-09T01:05:29;22.60;53.00
79760;DHT22;70512;42.122;24.732;2023-07-09T01:07:56;22.60;53.00
79760;DHT22;70512;42.122;24.732;2023-07-09T01:10:25;22.60;53.00
79760;DHT22;70512;42.122;24.732;2023-07-09T01:12:53;22.60;53.00
79760;DHT22;70512;42.122;24.732;2023-07-09T01:15:20;22.60;53.20
79760;DHT22;70512;42.122;24.732;2023-07-09T01:17:48;22.50;53.10
79760;DHT22;70512;42.122;24.732;2023-07-09T01:20:19;22.50;53.10
79760;DHT22;70512;42.122;24.732;2023-07-09T01:22:51;22.60;53.20
79760;DHT22;70512;42.122;24.732;2023-07-09T01:25:24;22.50;53.10
79760;DHT22;70512;42.122;24.732;2023-07-09T01:27:52;22.40;53.10
79760;DHT22;70512;42.122;24.732;2023-07-09T01:30:24;22.40;53.10
79760;DHT22;70512;42.122;24.732;2023-07-09T01:32:55;22.40;53.10
79760;DHT22;70512;42.122;24.732;2023-07-09T01:35:21;22.40;53.00
79760;DHT22;70512;42.122;24.732;2023-07-09T01:37:49;22.50;53.00
79760;DHT22;70512;42.122;24.732;2023-07-09T01:40:21;22.40;52.90
79760;DHT22;70512;42.122;24.732;2023-07-09T01:42:50;22.40;52.90
79760;DHT22;70512;42.122;24.732;2023-07-09T01:45:18;22.40;52.90
79760;DHT22;70512;42.122;24.732;2023-07-09T01:47:47;22.40;53.00
79760;DHT22;70512;42.122;24.732;2023-07-09T01:50:14;22.40;53.10
79760;DHT22;70512;42.122;24.732;2023-07-09T01:52:43;22.30;53.00
79760;DHT22;70512;42.122;24.732;2023-07-09T01:55:13;22.30;53.00
79760;DHT22;70512;42.122;24.732;2023-07-09T01:57:43;22.30;53.00
79760;DHT22;70512;42.122;24.732;2023-07-09T02:00:14;22.30;52.80
79760;DHT22;70512;42.122;24.732;2023-07-09T02:02:43;22.30;52.90
79760;DHT22;70512;42.122;24.732;2023-07-09T02:05:16;22.30;53.00
79760;DHT22;70512;42.122;24.732;2023-07-09T02:07:44;22.30;52.80
79760;DHT22;70512;42.122;24.732;2023-07-09T02:10:14;22.20;52.90
79760;DHT22;70512;42.122;24.732;2023-07-09T02:12:42;22.30;52.70
79760;DHT22;70512;42.122;24.732;2023-07-09T02:15:10;22.20;52.70
79760;DHT22;70512;42.122;24.732;2023-07-09T02:17:38;22.30;52.60
79760;DHT22;70512;42.122;24.732;2023-07-09T02:20:07;22.30;52.40
79760;DHT22;70512;42.122;24.732;2023-07-09T02:22:36;22.30;52.30
79760;DHT22;70512;42.122;24.732;2023-07-09T02:25:05;22.40;52.30
79760;DHT22;70512;42.122;24.732;2023-07-09T02:27:35;22.30;52.20
79760;DHT22;70512;42.122;24.732;2023-07-09T02:30:07;22.30;52.30
79760;DHT22;70512;42.122;24.732;2023-07-09T02:37:46;22.30;52.10
79760;DHT22;70512;42.122;24.732;2023-07-09T02:40:16;22.30;52.10
79760;DHT22;70512;42.122;24.732;2023-07-09T02:42:43;22.20;52.00
79760;DHT22;70512;42.122;24.732;2023-07-09T02:45:11;22.20;52.20
79760;DHT22;70512;42.122;24.732;2023-07-09T02:47:39;22.20;52.30
79760;DHT22;70512;42.122;24.732;2023-07-09T02:50:07;22.10;52.40
79760;DHT22;70512;42.122;24.732;2023-07-09T02:52:35;22.20;52.50
79760;DHT22;70512;42.122;24.732;2023-07-09T02:55:02;22.10;52.50
79760;DHT22;70512;42.122;24.732;2023-07-09T02:57:30;22.20;52.50
79760;DHT22;70512;42.122;24.732;2023-07-09T02:59:58;22.20;52.40
79760;DHT22;70512;42.122;24.732;2023-07-09T03:02:26;22.20;52.30
79760;DHT22;70512;42.122;24.732;2023-07-09T03:04:53;22.10;52.50
79760;DHT22;70512;42.122;24.732;2023-07-09T03:07:21;22.10;52.40
79760;DHT22;70512;42.122;24.732;2023-07-09T03:09:48;22.10;52.60
79760;DHT22;70512;42.122;24.732;2023-07-09T03:12:16;22.10;53.10
79760;DHT22;70512;42.122;24.732;2023-07-09T03:14:47;22.10;52.40
79760;DHT22;70512;42.122;24.732;2023-07-09T03:17:14;22.00;52.30
79760;DHT22;70512;42.122;24.732;2023-07-09T03:19:42;22.10;52.30
79760;DHT22;70512;42.122;24.732;2023-07-09T03:22:10;22.10;52.40
79760;DHT22;70512;42.122;24.732;2023-07-09T03:24:37;22.10;52.50
79760;DHT22;70512;42.122;24.732;2023-07-09T03:27:06;22.00;52.40
79760;DHT22;70512;42.122;24.732;2023-07-09T03:29:34;22.00;52.30
79760;DHT22;70512;42.122;24.732;2023-07-09T03:32:01;22.00;52.20
79760;DHT22;70512;42.122;24.732;2023-07-09T03:34:29;22.00;52.20
79760;DHT22;70512;42.122;24.732;2023-07-09T03:36:56;22.00;52.70
79760;DHT22;70512;42.122;24.732;2023-07-09T03:39:24;22.00;52.10
79760;DHT22;70512;42.122;24.732;2023-07-09T03:41:52;22.00;52.10
79760;DHT22;70512;42.122;24.732;2023-07-09T03:44:19;22.00;52.10
79760;DHT22;70512;42.122;24.732;2023-07-09T03:46:47;22.00;51.90
79760;DHT22;70512;42.122;24.732;2023-07-09T03:49:15;22.00;51.80
79760;DHT22;70512;42.122;24.732;2023-07-09T03:51:42;22.10;52.10
79760;DHT22;70512;42.122;24.732;2023-07-09T03:54:10;22.10;51.90
79760;DHT22;70512;42.122;24.732;2023-07-09T03:56:37;22.10;51.70
79760;DHT22;70512;42.122;24.732;2023-07-09T03:59:05;22.00;51.70
79760;DHT22;70512;42.122;24.732;2023-07-09T04:01:33;22.10;51.90
79760;DHT22;70512;42.122;24.732;2023-07-09T04:04:00;22.10;51.70
79760;DHT22;70512;42.122;24.732;2023-07-09T04:06:28;22.20;51.50
79760;DHT22;70512;42.122;24.732;2023-07-09T04:08:56;22.20;51.60
79760;DHT22;70512;42.122;24.732;2023-07-09T04:11:24;22.20;51.40
79760;DHT22;70512;42.122;24.732;2023-07-09T04:13:51;22.30;51.20
79760;DHT22;70512;42.122;24.732;2023-07-09T04:16:19;22.20;50.80
79760;DHT22;70512;42.122;24.732;2023-07-09T04:18:47;22.20;51.10
79760;DHT22;70512;42.122;24.732;2023-07-09T04:21:14;22.30;51.20
79760;DHT22;70512;42.122;24.732;2023-07-09T04:23:42;22.30;50.90
79760;DHT22;70512;42.122;24.732;2023-07-09T04:26:14;22.40;51.30
79760;DHT22;70512;42.122;24.732;2023-07-09T04:28:41;22.50;51.20
79760;DHT22;70512;42.122;24.732;2023-07-09T04:31:09;22.50;51.20
79760;DHT22;70512;42.122;24.732;2023-07-09T04:33:37;22.50;50.80
79760;DHT22;70512;42.122;24.732;2023-07-09T04:36:05;22.60;50.70
79760;DHT22;70512;42.122;24.732;2023-07-09T04:38:34;22.70;50.90
79760;DHT22;70512;42.122;24.732;2023-07-09T04:41:02;22.70;50.30
79760;DHT22;70512;42.122;24.732;2023-07-09T04:43:30;22.80;50.20
79760;DHT22;70512;42.122;24.732;2023-07-09T04:45:58;22.90;49.90
79760;DHT22;70512;42.122;24.732;2023-07-09T04:48:25;22.90;49.70
79760;DHT22;70512;42.122;24.732;2023-07-09T04:50:53;23.00;49.90
79760;DHT22;70512;42.122;24.732;2023-07-09T04:53:21;23.00;49.70
79760;DHT22;70512;42.122;24.732;2023-07-09T04:55:50;23.10;49.70
79760;DHT22;70512;42.122;24.732;2023-07-09T04:58:18;23.10;49.80
79760;DHT22;70512;42.122;24.732;2023-07-09T05:00:46;23.10;49.40
79760;DHT22;70512;42.122;24.732;2023-07-09T05:03:14;23.20;49.40
79760;DHT22;70512;42.122;24.732;2023-07-09T05:05:44;23.20;49.00
79760;DHT22;70512;42.122;24.732;2023-07-09T05:08:12;23.30;48.80
79760;DHT22;70512;42.122;24.732;2023-07-09T05:10:46;23.40;48.40
79760;DHT22;70512;42.122;24.732;2023-07-09T05:13:14;23.50;48.50
79760;DHT22;70512;42.122;24.732;2023-07-09T05:15:43;23.50;48.20
79760;DHT22;70512;42.122;24.732;2023-07-09T05:18:14;23.50;47.90
79760;DHT22;70512;42.122;24.732;2023-07-09T05:20:41;23.50;47.40
79760;DHT22;70512;42.122;24.732;2023-07-09T05:23:10;23.60;48.00
79760;DHT22;70512;42.122;24.732;2023-07-09T05:25:38;23.60;48.00
79760;DHT22;70512;42.122;24.732;2023-07-09T05:28:06;23.70;47.30
79760;DHT22;70512;42.122;24.732;2023-07-09T05:30:33;23.60;47.00
79760;DHT22;70512;42.122;24.732;2023-07-09T05:33:01;23.70;47.40
79760;DHT22;70512;42.122;24.732;2023-07-09T05:35:29;23.70;47.10
79760;DHT22;70512;42.122;24.732;2023-07-09T05:37:56;23.70;47.50
79760;DHT22;70512;42.122;24.732;2023-07-09T05:40:24;23.80;46.70
79760;DHT22;70512;42.122;24.732;2023-07-09T05:42:52;23.80;46.70
79760;DHT22;70512;42.122;24.732;2023-07-09T05:45:19;23.90;46.60
79760;DHT22;70512;42.122;24.732;2023-07-09T05:47:47;23.90;46.50
79760;DHT22;70512;42.122;24.732;2023-07-09T05:50:15;23.90;46.40
79760;DHT22;70512;42.122;24.732;2023-07-09T05:52:43;24.00;46.60
79760;DHT22;70512;42.122;24.732;2023-07-09T05:55:10;24.00;46.10
79760;DHT22;70512;42.122;24.732;2023-07-09T05:57:39;24.00;46.00
79760;DHT22;70512;42.122;24.732;2023-07-09T06:00:07;24.10;46.10
79760;DHT22;70512;42.122;24.732;2023-07-09T06:02:35;24.10;45.70
79760;DHT22;70512;42.122;24.732;2023-07-09T06:05:04;24.20;45.70
79760;DHT22;70512;42.122;24.732;2023-07-09T06:07:34;24.20;45.40
79760;DHT22;70512;42.122;24.732;2023-07-09T06:10:01;24.30;45.60
79760;DHT22;70512;42.122;24.732;2023-07-09T06:12:29;24.30;45.30
79760;DHT22;70512;42.122;24.732;2023-07-09T06:14:57;24.50;45.50
79760;DHT22;70512;42.122;24.732;2023-07-09T06:17:24;24.60;45.30
79760;DHT22;70512;42.122;24.732;2023-07-09T06:19:52;24.70;44.20
79760;DHT22;70512;42.122;24.732;2023-07-09T06:22:19;24.60;44.50
79760;DHT22;70512;42.122;24.732;2023-07-09T06:24:47;24.70;44.90
79760;DHT22;70512;42.122;24.732;2023-07-09T06:27:15;24.70;45.20
79760;DHT22;70512;42.122;24.732;2023-07-09T06:29:42;24.80;44.30
79760;DHT22;70512;42.122;24.732;2023-07-09T06:32:10;24.80;44.30
79760;DHT22;70512;42.122;24.732;2023-07-09T06:34:38;24.90;44.30
79760;DHT22;70512;42.122;24.732;2023-07-09T06:37:05;25.00;44.30
79760;DHT22;70512;42.122;24.732;2023-07-09T06:39:33;25.10;43.90
79760;DHT22;70512;42.122;24.732;2023-07-09T06:42:01;25.10;43.00
79760;DHT22;70512;42.122;24.732;2023-07-09T06:44:28;25.10;43.20
79760;DHT22;70512;42.122;24.732;2023-07-09T06:46:56;25.10;43.30
79760;DHT22;70512;42.122;24.732;2023-07-09T06:49:24;25.20;43.90
79760;DHT22;70512;42.122;24.732;2023-07-09T06:51:52;25.20;43.20
79760;DHT22;70512;42.122;24.732;2023-07-09T06:54:20;25.30;42.90
79760;DHT22;70512;42.122;24.732;2023-07-09T06:56:48;25.30;42.80
79760;DHT22;70512;42.122;24.732;2023-07-09T06:59:16;25.40;42.70
79760;DHT22;70512;42.122;24.732;2023-07-09T07:01:43;25.40;42.60
79760;DHT22;70512;42.122;24.732;2023-07-09T07:04:11;25.50;42.50
79760;DHT22;70512;42.122;24.732;2023-07-09T07:06:38;25.50;42.70
79760;DHT22;70512;42.122;24.732;2023-07-09T07:09:06;25.50;42.50
79760;DHT22;70512;42.122;24.732;2023-07-09T07:11:35;25.60;42.50
79760;DHT22;70512;42.122;24.732;2023-07-09T07:14:02;25.70;42.60
79760;DHT22;70512;42.122;24.732;2023-07-09T07:16:30;25.90;42.60
79760;DHT22;70512;42.122;24.732;2023-07-09T07:18:58;26.00;42.20
79760;DHT22;70512;42.122;24.732;2023-07-09T07:21:25;26.00;42.30
79760;DHT22;70512;42.122;24.732;2023-07-09T07:23:53;26.10;41.30
79760;DHT22;70512;42.122;24.732;2023-07-09T07:26:20;26.10;41.80
79760;DHT22;70512;42.122;24.732;2023-07-09T07:28:49;26.20;41.90
79760;DHT22;70512;42.122;24.732;2023-07-09T07:31:17;26.30;41.40
79760;DHT22;70512;42.122;24.732;2023-07-09T07:33:44;26.30;41.20
79760;DHT22;70512;42.122;24.732;2023-07-09T07:36:12;26.50;41.30
79760;DHT22;70512;42.122;24.732;2023-07-09T07:38:40;26.50;40.60
79760;DHT22;70512;42.122;24.732;2023-07-09T07:41:08;26.60;41.40
79760;DHT22;70512;42.122;24.732;2023-07-09T07:43:36;26.70;41.00
79760;DHT22;70512;42.122;24.732;2023-07-09T07:46:03;26.80;40.40
79760;DHT22;70512;42.122;24.732;2023-07-09T07:48:31;27.00;40.40
79760;DHT22;70512;42.122;24.732;2023-07-09T07:51:00;27.00;39.80
79760;DHT22;70512;42.122;24.732;2023-07-09T07:53:30;27.10;38.70
79760;DHT22;70512;42.122;24.732;2023-07-09T07:55:58;27.20;38.80
79760;DHT22;70512;42.122;24.732;2023-07-09T07:58:27;27.10;38.60
79760;DHT22;70512;42.122;24.732;2023-07-09T08:00:56;27.20;38.50
79760;DHT22;70512;42.122;24.732;2023-07-09T08:03:24;27.30;38.60
79760;DHT22;70512;42.122;24.732;2023-07-09T08:05:53;27.40;38.10
79760;DHT22;70512;42.122;24.732;2023-07-09T08:08:20;27.50;37.20
79760;DHT22;70512;42.122;24.732;2023-07-09T08:10:49;27.50;37.20
79760;DHT22;70512;42.122;24.732;2023-07-09T08:13:18;27.50;37.30
79760;DHT22;70512;42.122;24.732;2023-07-09T08:15:46;27.60;37.50
79760;DHT22;70512;42.122;24.732;2023-07-09T08:18:14;27.70;37.40
79760;DHT22;70512;42.122;24.732;2023-07-09T08:20:45;27.80;37.20
79760;DHT22;70512;42.122;24.732;2023-07-09T08:23:12;27.80;36.30
79760;DHT22;70512;42.122;24.732;2023-07-09T08:25:40;27.80;36.40
79760;DHT22;70512;42.122;24.732;2023-07-09T08:28:08;27.90;35.70
79760;DHT22;70512;42.122;24.732;2023-07-09T08:30:36;27.80;35.60
79760;DHT22;70512;42.122;24.732;2023-07-09T08:33:04;27.80;36.20
79760;DHT22;70512;42.122;24.732;2023-07-09T08:35:32;27.90;36.20
79760;DHT22;70512;42.122;24.732;2023-07-09T08:37:59;27.90;34.90
79760;DHT22;70512;42.122;24.732;2023-07-09T08:40:27;28.00;35.00
79760;DHT22;70512;42.122;24.732;2023-07-09T08:43:02;28.00;34.80
79760;DHT22;70512;42.122;24.732;2023-07-09T08:45:49;28.20;35.50
79760;DHT22;70512;42.122;24.732;2023-07-09T08:48:36;28.20;35.40
79760;DHT22;70512;42.122;24.732;2023-07-09T08:51:10;28.20;34.60
79760;DHT22;70512;42.122;24.732;2023-07-09T08:53:44;28.20;34.40
79760;DHT22;70512;42.122;24.732;2023-07-09T08:56:11;28.40;33.30
79760;DHT22;70512;42.122;24.732;2023-07-09T08:58:41;28.50;32.80
79760;DHT22;70512;42.122;24.732;2023-07-09T09:01:27;28.50;33.60
79760;DHT22;70512;42.122;24.732;2023-07-09T09:03:52;28.60;34.50
79760;DHT22;70512;42.122;24.732;2023-07-09T09:06:25;28.50;34.50
79760;DHT22;70512;42.122;24.732;2023-07-09T09:09:28;28.60;33.90
79760;DHT22;70512;42.122;24.732;2023-07-09T09:12:13;28.60;33.60
79760;DHT22;70512;42.122;24.732;2023-07-09T09:14:43;28.90;33.60
79760;DHT22;70512;42.122;24.732;2023-07-09T09:17:18;29.00;32.60
79760;DHT22;70512;42.122;24.732;2023-07-09T09:19:56;29.00;32.20
79760;DHT22;70512;42.122;24.732;2023-07-09T09:22:41;29.20;32.50
79760;DHT22;70512;42.122;24.732;2023-07-09T09:27:47;29.20;33.10
79760;DHT22;70512;42.122;24.732;2023-07-09T09:30:18;29.40;32.70
79760;DHT22;70512;42.122;24.732;2023-07-09T09:32:56;29.60;32.60
79760;DHT22;70512;42.122;24.732;2023-07-09T09:35:36;29.60;32.40
79760;DHT22;70512;42.122;24.732;2023-07-09T09:38:12;29.50;31.00
79760;DHT22;70512;42.122;24.732;2023-07-09T09:40:40;29.70;31.50
79760;DHT22;70512;42.122;24.732;2023-07-09T09:43:21;29.70;31.30
79760;DHT22;70512;42.122;24.732;2023-07-09T09:45:48;29.80;30.80
79760;DHT22;70512;42.122;24.732;2023-07-09T09:48:27;29.90;30.90
79760;DHT22;70512;42.122;24.732;2023-07-09T09:50:51;29.90;30.40
79760;DHT22;70512;42.122;24.732;2023-07-09T09:53:21;29.90;29.90
79760;DHT22;70512;42.122;24.732;2023-07-09T09:55:52;30.00;29.60
79760;DHT22;70512;42.122;24.732;2023-07-09T09:58:24;29.90;29.50
79760;DHT22;70512;42.122;24.732;2023-07-09T10:00:52;29.80;29.00
79760;DHT22;70512;42.122;24.732;2023-07-09T10:03:20;29.90;28.20
79760;DHT22;70512;42.122;24.732;2023-07-09T10:05:56;29.90;27.50
79760;DHT22;70512;42.122;24.732;2023-07-09T10:08:44;29.90;29.10
79760;DHT22;70512;42.122;24.732;2023-07-09T10:11:17;29.90;29.60
79760;DHT22;70512;42.122;24.732;2023-07-09T10:13:43;30.10;29.60
79760;DHT22;70512;42.122;24.732;2023-07-09T10:16:25;30.10;29.70
79760;DHT22;70512;42.122;24.732;2023-07-09T10:18:58;29.90;29.60
79760;DHT22;70512;42.122;24.732;2023-07-09T10:21:42;29.90;29.70
79760;DHT22;70512;42.122;24.732;2023-07-09T10:27:09;30.10;29.10
79760;DHT22;70512;42.122;24.732;2023-07-09T10:35:22;30.30;29.20
79760;DHT22;70512;42.122;24.732;2023-07-09T10:37:52;30.40;28.50
79760;DHT22;70512;42.122;24.732;2023-07-09T10:43:10;30.30;28.50
79760;DHT22;70512;42.122;24.732;2023-07-09T10:45:47;30.40;28.00
79760;DHT22;70512;42.122;24.732;2023-07-09T10:48:24;30.20;27.90
79760;DHT22;70512;42.122;24.732;2023-07-09T10:50:49;30.30;27.70
79760;DHT22;70512;42.122;24.732;2023-07-09T10:53:39;30.40;28.30
79760;DHT22;70512;42.122;24.732;2023-07-09T10:56:11;30.40;28.10
79760;DHT22;70512;42.122;24.732;2023-07-09T10:58:50;30.40;28.00
79760;DHT22;70512;42.122;24.732;2023-07-09T11:01:16;30.40;26.90
79760;DHT22;70512;42.122;24.732;2023-07-09T11:03:50;30.50;28.20
79760;DHT22;70512;42.122;24.732;2023-07-09T11:06:26;30.80;27.90
79760;DHT22;70512;42.122;24.732;2023-07-09T11:08:53;31.10;27.00
79760;DHT22;70512;42.122;24.732;2023-07-09T11:11:37;31.20;27.30
79760;DHT22;70512;42.122;24.732;2023-07-09T11:14:09;31.30;27.40
79760;DHT22;70512;42.122;24.732;2023-07-09T11:16:41;31.40;27.10
79760;DHT22;70512;42.122;24.732;2023-07-09T11:19:18;31.50;26.60
79760;DHT22;70512;42.122;24.732;2023-07-09T11:22:17;31.90;27.20
79760;DHT22;70512;42.122;24.732;2023-07-09T11:27:27;35.90;24.70
79760;DHT22;70512;42.122;24.732;2023-07-09T11:30:00;38.30;21.40
79760;DHT22;70512;42.122;24.732;2023-07-09T11:32:30;39.90;20.20
79760;DHT22;70512;42.122;24.732;2023-07-09T11:35:08;41.10;19.30
79760;DHT22;70512;42.122;24.732;2023-07-09T11:37:44;41.60;18.90
79760;DHT22;70512;42.122;24.732;2023-07-09T11:40:13;42.20;18.40
79760;DHT22;70512;42.122;24.732;2023-07-09T11:42:58;42.60;18.00
79760;DHT22;70512;42.122;24.732;2023-07-09T11:45:31;43.40;17.30
79760;DHT22;70512;42.122;24.732;2023-07-09T11:50:41;44.60;16.70
79760;DHT22;70512;42.122;24.732;2023-07-09T11:55:48;44.90;16.90
79760;DHT22;70512;42.122;24.732;2023-07-09T11:58:18;46.10;16.00
79760;DHT22;70512;42.122;24.732;2023-07-09T12:00:51;46.10;15.40
79760;DHT22;70512;42.122;24.732;2023-07-09T12:03:31;45.40;15.60
79760;DHT22;70512;42.122;24.732;2023-07-09T12:06:11;45.00;16.20
79760;DHT22;70512;42.122;24.732;2023-07-09T12:08:37;44.10;16.20
79760;DHT22;70512;42.122;24.732;2023-07-09T12:11:06;43.70;16.50
79760;DHT22;70512;42.122;24.732;2023-07-09T12:13:40;43.30;17.00
79760;DHT22;70512;42.122;24.732;2023-07-09T12:16:28;43.80;16.50
79760;DHT22;70512;42.122;24.732;2023-07-09T12:18:56;44.50;16.50
79760;DHT22;70512;42.122;24.732;2023-07-09T12:21:25;45.50;16.10
79760;DHT22;70512;42.122;24.732;2023-07-09T12:23:54;46.30;15.40
79760;DHT22;70512;42.122;24.732;2023-07-09T12:26:25;46.60;15.80
79760;DHT22;70512;42.122;24.732;2023-07-09T12:28:54;47.50;15.30
79760;DHT22;70512;42.122;24.732;2023-07-09T12:31:29;47.70;14.60
79760;DHT22;70512;42.122;24.732;2023-07-09T12:33:59;46.70;14.90
79760;DHT22;70512;42.122;24.732;2023-07-09T12:36:28;46.60;15.40
79760;DHT22;70512;42.122;24.732;2023-07-09T12:39:03;46.90;15.50
79760;DHT22;70512;42.122;24.732;2023-07-09T12:41:39;45.80;15.10
79760;DHT22;70512;42.122;24.732;2023-07-09T12:44:18;45.90;16.00
79760;DHT22;70512;42.122;24.732;2023-07-09T12:46:48;45.40;15.60
79760;DHT22;70512;42.122;24.732;2023-07-09T12:49:28;45.50;16.00
79760;DHT22;70512;42.122;24.732;2023-07-09T12:51:58;45.90;16.00
79760;DHT22;70512;42.122;24.732;2023-07-09T12:54:32;45.40;16.00
79760;DHT22;70512;42.122;24.732;2023-07-09T12:56:59;45.20;16.30
79760;DHT22;70512;42.122;24.732;2023-07-09T12:59:37;45.80;16.40
79760;DHT22;70512;42.122;24.732;2023-07-09T13:04:38;44.70;16.60
79760;DHT22;70512;42.122;24.732;2023-07-09T13:09:55;45.40;16.60
79760;DHT22;70512;42.122;24.732;2023-07-09T13:12:30;46.00;16.10
79760;DHT22;70512;42.122;24.732;2023-07-09T13:14:58;45.90;16.10
79760;DHT22;70512;42.122;24.732;2023-07-09T13:17:28;46.00;16.20
79760;DHT22;70512;42.122;24.732;2023-07-09T13:19:57;46.00;16.30
79760;DHT22;70512;42.122;24.732;2023-07-09T13:22:27;46.70;15.80
79760;DHT22;70512;42.122;24.732;2023-07-09T13:24:55;46.90;15.80
79760;DHT22;70512;42.122;24.732;2023-07-09T13:27:22;47.40;15.40
79760;DHT22;70512;42.122;24.732;2023-07-09T13:29:50;46.40;15.60
79760;DHT22;70512;42.122;24.732;2023-07-09T13:32:18;44.90;16.90
79760;DHT22;70512;42.122;24.732;2023-07-09T13:34:47;43.60;17.80
79760;DHT22;70512;42.122;24.732;2023-07-09T13:37:16;42.40;18.50
79760;DHT22;70512;42.122;24.732;2023-07-09T13:39:43;41.40;19.50
79760;DHT22;70512;42.122;24.732;2023-07-09T13:42:15;40.40;20.10
79760;DHT22;70512;42.122;24.732;2023-07-09T13:44:45;40.70;19.90
79760;DHT22;70512;42.122;24.732;2023-07-09T13:47:18;41.20;19.70
79760;DHT22;70512;42.122;24.732;2023-07-09T13:49:47;41.00;19.70
79760;DHT22;70512;42.122;24.732;2023-07-09T13:52:21;40.80;19.50
79760;DHT22;70512;42.122;24.732;2023-07-09T13:54:50;40.40;20.10
79760;DHT22;70512;42.122;24.732;2023-07-09T13:57:19;41.50;19.30
79760;DHT22;70512;42.122;24.732;2023-07-09T13:59:48;42.00;19.20
79760;DHT22;70512;42.122;24.732;2023-07-09T14:02:24;42.70;18.60
79760;DHT22;70512;42.122;24.732;2023-07-09T14:04:54;43.70;18.30
79760;DHT22;70512;42.122;24.732;2023-07-09T14:07:31;44.20;17.30
79760;DHT22;70512;42.122;24.732;2023-07-09T14:10:00;45.60;16.90
79760;DHT22;70512;42.122;24.732;2023-07-09T14:12:28;47.20;16.40
79760;DHT22;70512;42.122;24.732;2023-07-09T14:15:05;47.80;15.30
79760;DHT22;70512;42.122;24.732;2023-07-09T14:17:27;48.10;15.00
79760;DHT22;70512;42.122;24.732;2023-07-09T14:19:55;48.90;14.90
79760;DHT22;70512;42.122;24.732;2023-07-09T14:22:35;48.90;14.60
79760;DHT22;70512;42.122;24.732;2023-07-09T14:25:05;48.20;14.50
79760;DHT22;70512;42.122;24.732;2023-07-09T14:27:33;47.70;15.10
79760;DHT22;70512;42.122;24.732;2023-07-09T14:30:01;47.80;15.70
79760;DHT22;70512;42.122;24.732;2023-07-09T14:32:38;47.50;15.10
79760;DHT22;70512;42.122;24.732;2023-07-09T14:35:16;47.20;15.50
79760;DHT22;70512;42.122;24.732;2023-07-09T14:37:46;46.70;16.00
79760;DHT22;70512;42.122;24.732;2023-07-09T14:40:13;46.30;16.20
79760;DHT22;70512;42.122;24.732;2023-07-09T14:42:42;46.10;16.10
79760;DHT22;70512;42.122;24.732;2023-07-09T14:45:15;48.10;15.70
79760;DHT22;70512;42.122;24.732;2023-07-09T14:47:40;49.80;14.80
79760;DHT22;70512;42.122;24.732;2023-07-09T14:50:08;49.20;14.10
79760;DHT22;70512;42.122;24.732;2023-07-09T14:52:40;49.50;14.30
79760;DHT22;70512;42.122;24.732;2023-07-09T14:55:07;47.90;15.70
79760;DHT22;70512;42.122;24.732;2023-07-09T14:57:34;48.80;14.80
79760;DHT22;70512;42.122;24.732;2023-07-09T15:00:03;48.80;14.70
79760;DHT22;70512;42.122;24.732;2023-07-09T15:02:37;49.70;14.30
79760;DHT22;70512;42.122;24.732;2023-07-09T15:05:17;50.90;14.10
79760;DHT22;70512;42.122;24.732;2023-07-09T15:07:36;50.30;13.80
79760;DHT22;70512;42.122;24.732;2023-07-09T15:10:04;49.70;14.00
79760;DHT22;70512;42.122;24.732;2023-07-09T15:12:35;49.10;14.60
79760;DHT22;70512;42.122;24.732;2023-07-09T15:17:46;46.00;16.30
79760;DHT22;70512;42.122;24.732;2023-07-09T15:20:22;46.10;16.20
79760;DHT22;70512;42.122;24.732;2023-07-09T15:22:51;47.00;15.80
79760;DHT22;70512;42.122;24.732;2023-07-09T15:25:24;47.80;15.30
79760;DHT22;70512;42.122;24.732;2023-07-09T15:27:52;46.40;16.00
79760;DHT22;70512;42.122;24.732;2023-07-09T15:30:24;44.70;17.10
79760;DHT22;70512;42.122;24.732;2023-07-09T15:32:55;44.20;17.60
79760;DHT22;70512;42.122;24.732;2023-07-09T15:35:22;43.80;18.10
79760;DHT22;70512;42.122;24.732;2023-07-09T15:37:50;43.80;18.10
79760;DHT22;70512;42.122;24.732;2023-07-09T15:40:20;42.70;18.50
79760;DHT22;70512;42.122;24.732;2023-07-09T15:42:51;41.70;19.60
79760;DHT22;70512;42.122;24.732;2023-07-09T15:45:20;40.70;20.80
79760;DHT22;70512;42.122;24.732;2023-07-09T15:47:50;39.90;21.00
79760;DHT22;70512;42.122;24.732;2023-07-09T15:50:22;39.40;21.50
79760;DHT22;70512;42.122;24.732;2023-07-09T15:52:51;39.10;22.30
79760;DHT22;70512;42.122;24.732;2023-07-09T15:55:26;38.40;22.90
79760;DHT22;70512;42.122;24.732;2023-07-09T15:57:52;38.20;23.00
79760;DHT22;70512;42.122;24.732;2023-07-09T16:00:36;38.00;23.40
79760;DHT22;70512;42.122;24.732;2023-07-09T16:02:57;38.90;22.60
79760;DHT22;70512;42.122;24.732;2023-07-09T16:05:27;40.40;21.40
79760;DHT22;70512;42.122;24.732;2023-07-09T16:07:57;41.60;20.40
79760;DHT22;70512;42.122;24.732;2023-07-09T16:10:27;42.10;19.60